Nearby METAR Reports

 

KPIB - Pine Belt Rgnl, Mississippi, USA
Distance from station: SSW 12mi, 19km
Updated: Sat, 16-Dec-2017 12:56am CST
Clear
Clear
 Wind from calm
Wind: Calm
Temperature: 28°F , -2°C
Dew Point: 27°F , -3°C
Humidity: 93%
Barometer: 30.28 inHg , 1025.4 hPa
Clouds: Clear
Visibility: 8 miles , 13 km
2017/12/16 06:56 KPIB 160656Z AUTO 00000KT 8SM CLR M02/M03 A3028 RMK AO2 SLP256 T10221028 FZRANO
KHBG - Hattiesburg, Mississippi, USA
Distance from station: S 25mi, 40km
Updated: Sat, 16-Dec-2017 12:53am CST
Clear
Clear
 Wind from calm
Wind: Calm
Temperature: 32°F , 0°C
Dew Point: 32°F , 0°C
Humidity: 100%
Barometer: 30.28 inHg , 1025.4 hPa
Clouds: Clear
Visibility: 10 miles , 16 km
2017/12/16 06:53 KHBG 160653Z AUTO 00000KT 10SM CLR 00/00 A3028 RMK AO2 SLP253 T00000000
 
KMEI - Meridian/Key Fld, Mississippi, USA
Distance from station: NNE 57mi, 91km
Updated: Sat, 16-Dec-2017 12:58am CST
Clear
Clear
 Wind from calm
Wind: Calm
Temperature: 28°F , -2°C
Dew Point: 27°F , -3°C
Humidity: 93%
Barometer: 30.27 inHg , 1025.1 hPa
Clouds: Clear
Visibility: 10 miles , 16 km
2017/12/16 06:58 KMEI 160658Z AUTO 00000KT 10SM CLR M02/M03 A3027 RMK AO2 SLP251 T10221033
KJAN - Jackson, Mississippi, USA
Distance from station: NW 69mi, 111km
Updated: Sat, 16-Dec-2017 12:54am CST
Clear
Clear
 Wind from calm
Wind: Calm
Temperature: 28°F , -2°C
Dew Point: 25°F , -4°C
Humidity: 86%
Barometer: 30.26 inHg , 1024.7 hPa
Clouds: Clear
Visibility: 10 miles , 16 km
2017/12/16 06:54 KJAN 160654Z 00000KT 10SM CLR M02/M04 A3026 RMK AO2 SLP248 T10171044
 
K1R7 - Brookhaven, Mississippi, USA
Distance from station: W 70mi, 112km
Updated: Wed, 21-Jun-2017 3:15pm CDT
NOT Current
Mostly cloudy
Mostly cloudy
 Wind from ENE
Wind: ENE 3 mph , 6 km/h
Temperature: 77°F , 25°C
Dew Point: 75°F , 24°C
Humidity: 94%
Barometer: 29.83 inHg , 1010.2 hPa
Clouds: Mostly cloudy
Visibility: 10 miles , 16 km
Cloud details: Mostly cloudy 500 ft
2017/06/21 20:15 K1R7 212015Z AUTO 06003KT 10SM BKN005 25/24 A2983 RMK AO2
KHEZ - Natchez, Mississippi, USA
Distance from station: W 121mi, 195km
Updated: Sat, 16-Dec-2017 12:56am CST
Clear
Clear
 Wind from calm
Wind: Calm
Temperature: 28°F , -2°C
Dew Point: 28°F , -2°C
Humidity: 100%
Barometer: 30.27 inHg , 1025.1 hPa
Clouds: Clear
Visibility: 10 miles , 16 km
2017/12/16 06:56 KHEZ 160656Z AUTO 00000KT 10SM CLR M02/M02 A3027 RMK AO2 SLP257 T10171022 FZRANO
 
KNMM - Meridian Nas, Mississippi, USA
Distance from station: NNE 74mi, 119km
Updated: Sat, 16-Dec-2017 12:56am CST
Clear
Clear
 Wind from calm
Wind: Calm
Temperature: 28°F , -2°C
Dew Point: 25°F , -4°C
Humidity: 86%
Barometer: 30.28 inHg , 1025.4 hPa
Clouds: Clear
Visibility: 10 miles , 16 km
2017/12/16 06:56 KNMM 160656Z AUTO 00000KT 10SM CLR M02/M04 A3028 RMK AO2 SLP267 T10221039 $
KHKS - Jackson/Hawkins, Mississippi, USA
Distance from station: NW 76mi, 122km
Updated: Sat, 16-Dec-2017 12:53am CST
Mist, Clear
Mist, Clear
 Wind from calm
Wind: Calm
Temperature: 30°F , -1°C
Dew Point: 28°F , -2°C
Humidity: 93%
Barometer: 30.27 inHg , 1025.1 hPa
Summary: Mist
Clouds: Clear
Visibility: 4 miles , 6 km
2017/12/16 06:53 KHKS 160653Z AUTO 00000KT 4SM BR CLR M01/M02 A3027 RMK AO2 SLP248 T10111022
 
KMCB - Mccomb, Mississippi, USA
Distance from station: WSW 79mi, 127km
Updated: Sat, 16-Dec-2017 12:53am CST
Clear
Clear
 Wind from calm
Wind: Calm
Temperature: 34°F , 1°C
Dew Point: 30°F , -1°C
Humidity: 87%
Barometer: 30.26 inHg , 1024.7 hPa
Clouds: Clear
Visibility: 10 miles , 16 km
2017/12/16 06:53 KMCB 160653Z AUTO 00000KT 10SM CLR 01/M01 A3026 RMK AO2 SLP248 T00111006
KGPT - Gulfport, Mississippi, USA
Distance from station: S 84mi, 135km
Updated: Sat, 16-Dec-2017 12:53am CST
Clear
Clear
 Wind from N
Wind: N 5 mph , 7 km/h
Temperature: 43°F , 6°C
Wind Chill: 40°F , 4°C
Dew Point: 34°F , 1°C
Humidity: 71%
Barometer: 30.26 inHg , 1024.7 hPa
Clouds: Clear
Visibility: 10 miles , 16 km
2017/12/16 06:53 KGPT 160653Z 01004KT 10SM CLR 06/01 A3026 RMK AO2 SLP246 T00560006
 
KJVW - Raymond, Mississippi, USA
Distance from station: NW 84mi, 135km
Updated: Sat, 16-Dec-2017 12:55am CST
Mist
Mist
 Wind from calm
Wind: Calm
Temperature: 27°F , -3°C
Dew Point: 27°F , -3°C
Humidity: 100%
Barometer: 30.27 inHg , 1025.1 hPa
Summary: Mist
Visibility: 5 miles , 8 km
2017/12/16 06:55 KJVW 160655Z AUTO 00000KT 5SM BR M03/M03 A3027 RMK AO2
KBIX - Biloxi/Keesler, Mississippi, USA
Distance from station: SSE 85mi, 137km
Updated: Sat, 16-Dec-2017 12:56am CST
Mostly cloudy
Mostly cloudy
 Wind from NNE
Wind: NNE 5 mph , 7 km/h
Temperature: 41°F , 5°C
Wind Chill: 38°F , 3°C
Dew Point: 34°F , 1°C
Humidity: 76%
Barometer: 30.25 inHg , 1024.4 hPa
Clouds: Mostly cloudy
Visibility: 10 miles , 16 km
Cloud details: Mostly cloudy 19000 ft
Mostly cloudy 22000 ft
2017/12/16 06:56 KBIX 160656Z AUTO 02004KT 10SM BKN190 BKN220 05/01 A3025 RMK AO2 SLP247 T00510005
 
KMOB - Mobile/Bates, Alabama, USA
Distance from station: SE 87mi, 140km
Updated: Sat, 16-Dec-2017 12:56am CST
Overcast
Overcast
 Wind from NNE
Wind: NNE 7 mph , 11 km/h
Temperature: 41°F , 5°C
Wind Chill: 36°F , 2°C
Dew Point: 30°F , -1°C
Humidity: 66%
Barometer: 30.26 inHg , 1024.7 hPa
Clouds: Overcast
Visibility: 10 miles , 16 km
Cloud details: Overcast 12000 ft
2017/12/16 06:56 KMOB 160656Z AUTO 02006KT 10SM OVC120 05/M01 A3026 RMK AO2 SLP246 T00501006
KHSA - Bay St Louis, Mississippi, USA
Distance from station: S 88mi, 141km
Updated: Fri, 15-Dec-2017 7:55pm CST
NOT Current
Clear
Clear
 Wind from N
Wind: N 5 mph , 7 km/h
Temperature: 45°F , 7°C
Wind Chill: 42°F , 6°C
Dew Point: 36°F , 2°C
Humidity: 71%
Barometer: 30.25 inHg , 1024.4 hPa
Clouds: Clear
Visibility: 7 miles , 11 km
2017/12/16 01:55 KHSA 160155Z 01004KT 7SM CLR 07/02 A3025
 
KPQL - Pascagoula, Mississippi, USA
Distance from station: SSE 90mi, 145km
Updated: Sat, 16-Dec-2017 12:53am CST
Overcast
Overcast
 Wind from calm
Wind: Calm
Temperature: 41°F , 5°C
Dew Point: 32°F , 0°C
Humidity: 70%
Barometer: 30.26 inHg , 1024.7 hPa
Clouds: Overcast
Visibility: 10 miles , 16 km
Cloud details: Overcast 11000 ft
2017/12/16 06:53 KPQL 160653Z 00000KT 10SM OVC110 05/00 A3026 RMK AO2 SLP249 T00500000
KASD - Slidell 22, Louisiana, USA
Distance from station: SSW 94mi, 152km
Updated: Sat, 16-Dec-2017 12:53am CST
Overcast
Overcast
 Wind from NNE
Wind: NNE 5 mph , 7 km/h
Temperature: 43°F , 6°C
Wind Chill: 40°F , 4°C
Dew Point: 36°F , 2°C
Humidity: 76%
Barometer: 30.25 inHg , 1024.4 hPa
Clouds: Overcast
Visibility: 10 miles , 16 km
Cloud details: Overcast 11000 ft
2017/12/16 06:53 KASD 160653Z AUTO 03004KT 10SM OVC110 06/02 A3025 RMK AO2 SLP245 T00560017
 
KBFM - Mobile/Brookley, Alabama, USA
Distance from station: SE 98mi, 158km
Updated: Sat, 16-Dec-2017 12:53am CST
Mostly cloudy
Mostly cloudy
 Wind from N
Wind: N 6 mph , 9 km/h
Temperature: 43°F , 6°C
Wind Chill: 39°F , 4°C
Dew Point: 32°F , 0°C
Humidity: 66%
Barometer: 30.28 inHg , 1025.4 hPa
Clouds: Mostly cloudy
Visibility: 10 miles , 16 km
Cloud details: Mostly cloudy 11000 ft
2017/12/16 06:53 KBFM 160653Z AUTO 01005KT 10SM BKN110 06/00 A3028 RMK AO2 SLP253 T00610000
KHDC - Hammond, Louisiana, USA
Distance from station: SW 104mi, 167km
Updated: Sat, 16-Dec-2017 12:55am CST
Overcast
Overcast
 Wind from N
Wind: N 3 mph , 6 km/h
Temperature: 39°F , 4°C
Dew Point: 36°F , 2°C
Humidity: 87%
Barometer: 30.27 inHg , 1025.1 hPa
Clouds: Overcast
Visibility: 10 miles , 16 km
Cloud details: Overcast 11000 ft
2017/12/16 06:55 KHDC 160655Z AUTO 01003KT 10SM OVC110 04/02 A3027 RMK AO2
 
KMSY - New Orleans, Louisiana, USA
Distance from station: SW 128mi, 206km
Updated: Sat, 16-Dec-2017 12:53am CST
Partly cloudy
Partly cloudy
 Wind from NNE
Wind: NNE 7 mph , 11 km/h
Temperature: 46°F , 8°C
Wind Chill: 42°F , 6°C
Dew Point: 36°F , 2°C
Humidity: 66%
Barometer: 30.26 inHg , 1024.7 hPa
Clouds: Partly cloudy
Visibility: 10 miles , 16 km
Cloud details: Partly cloudy 12000 ft
2017/12/16 06:53 KMSY 160653Z 03006KT 10SM SCT120 08/02 A3026 RMK AO2 SLP248 T00830017
KJKA - Gulf Shores, Alabama, USA
Distance from station: SE 130mi, 210km
Updated: Sat, 16-Dec-2017 12:55am CST
Mostly cloudy
Mostly cloudy
 Wind from N
Wind: N 3 mph , 6 km/h
Temperature: 39°F , 4°C
Dew Point: 32°F , 0°C
Humidity: 75%
Barometer: 30.25 inHg , 1024.4 hPa
Clouds: Mostly cloudy
Visibility: 10 miles , 16 km
Cloud details: Mostly cloudy 11000 ft
2017/12/16 06:55 KJKA 160655Z AUTO 35003KT 10SM BKN110 04/00 A3025 RMK AO2 T00400001
 
KGTR - Golden Triangle Airport, Mississippi, USA
Distance from station: NNE 132mi, 212km
Updated: Sat, 16-Dec-2017 12:56am CST
Clear
Clear
 Wind from calm
Wind: Calm
Temperature: 27°F , -3°C
Dew Point: 25°F , -4°C
Humidity: 93%
Barometer: 30.26 inHg , 1024.7 hPa
Clouds: Clear
Visibility: 10 miles , 16 km
2017/12/16 06:56 KGTR 160656Z AUTO 00000KT 10SM CLR M03/M04 A3026 RMK AO2 WSHFT 0553 SLP253 T10331044 FZRANO
KBTR - Baton Rouge, Louisiana, USA
Distance from station: SW 147mi, 236km
Updated: Sat, 16-Dec-2017 12:53am CST
Mostly cloudy
Mostly cloudy
 Wind from N
Wind: N 3 mph , 6 km/h
Temperature: 39°F , 4°C
Dew Point: 34°F , 1°C
Humidity: 81%
Barometer: 30.27 inHg , 1025.1 hPa
Clouds: Mostly cloudy
Visibility: 10 miles , 16 km
Cloud details: Mostly cloudy 11000 ft
2017/12/16 06:53 KBTR 160653Z AUTO 36003KT 10SM BKN110 04/01 A3027 RMK AO2 SLP252 T00390011 TSNO
 
KMGM - Montgomery, Alabama, USA
Distance from station: ENE 172mi, 277km
Updated: Sat, 16-Dec-2017 12:53am CST
Clear
Clear
 Wind from SSW
Wind: SSW 3 mph , 6 km/h
Temperature: 28°F , -2°C
Dew Point: 23°F , -5°C
Humidity: 80%
Barometer: 30.28 inHg , 1025.4 hPa
Clouds: Clear
Visibility: 10 miles , 16 km
2017/12/16 06:53 KMGM 160653Z AUTO 21003KT 10SM CLR M02/M05 A3028 RMK AO2 SLP255 T10221050
KBHM - Birmingham, Alabama, USA
Distance from station: ENE 198mi, 318km
Updated: Sat, 16-Dec-2017 12:53am CST
Clear
Clear
 Wind from calm
Wind: Calm
Temperature: 28°F , -2°C
Dew Point: 25°F , -4°C
Humidity: 86%
Barometer: 30.27 inHg , 1025.1 hPa
Clouds: Clear
Visibility: 7 miles , 11 km
2017/12/16 06:53 KBHM 160653Z 00000KT 7SM CLR M02/M04 A3027 RMK AO2 SLP255 T10221039
 
KMEM - Memphis, Tennessee, USA
Distance from station: NNW 242mi, 389km
Updated: Sat, 16-Dec-2017 12:54am CST
Clear
Clear
 Wind from SSW
Wind: SSW 13 mph , 20 km/h
Temperature: 36°F , 2°C
Wind Chill: 27°F , -3°C
Dew Point: 27°F , -3°C
Humidity: 70%
Barometer: 30.21 inHg , 1023 hPa
Clouds: Clear
Visibility: 10 miles , 16 km
2017/12/16 06:54 KMEM 160654Z 20011KT 10SM CLR 02/M03 A3021 RMK AO2 SLP229 T00221028 $
KHSV - Huntsville, Alabama, USA
Distance from station: NE 252mi, 406km
Updated: Sat, 16-Dec-2017 12:53am CST
Mist, Clear
Mist, Clear
 Wind from E
Wind: E 3 mph , 6 km/h
Temperature: 27°F , -3°C
Dew Point: 25°F , -4°C
Humidity: 93%
Barometer: 30.25 inHg , 1024.4 hPa
Summary: Mist
Clouds: Clear
Visibility: 6 miles , 10 km
2017/12/16 06:53 KHSV 160653Z AUTO 10003KT 6SM BR CLR M03/M04 A3025 RMK AO2 SLP246 T10281039
 
KM54 - Lebanon, Tennessee, USA
Distance from station: NNE 357mi, 575km
Updated: Thu, 08-Sep-2011 11:45am CDT
NOT Current
Overcast
Overcast
 Wind from WNW
Wind: WNW 5 mph , 7 km/h
Temperature: 64°F , 18°C
Dew Point: 55°F , 13°C
Humidity: 73%
Barometer: 29.99 inHg , 1015.6 hPa
Clouds: Overcast
Visibility: 10 miles , 16 km
Cloud details: Overcast 3100 ft
2011/09/08 16:45 KM54 081645Z AUTO 29004KT 10SM OVC031 18/13 A2999 RMK AO1 OVC V BKN $
KJLN - Joplin, Missouri USA
Distance from station: NW 486mi, 782km
Updated: Sat, 16-Dec-2017 12:53am CST
Clear
Clear
 Wind from SSW
Wind: SSW 16 mph , 26 km/h
Temperature: 39°F , 4°C
Wind Chill: 30°F , -1°C
Dew Point: 25°F , -4°C
Humidity: 56%
Barometer: 30.04 inHg , 1017.3 hPa
Clouds: Clear
Visibility: 10 miles , 16 km
2017/12/16 06:53 KJLN 160653Z AUTO 20014KT 10SM CLR 04/M04 A3004 RMK AO2 SLP173 T00441039
 
KOKC - Oklahoma City, Oklahoma USA
Distance from station: WNW 547mi, 881km
Updated: Sat, 16-Dec-2017 12:52am CST
Clear
Clear
 Wind from S
Wind: S 12 mph , 19 km/h
Temperature: 36°F , 2°C
Wind Chill: 28°F , -2°C
Dew Point: 21°F , -6°C
Humidity: 56%
Barometer: 30.05 inHg , 1017.6 hPa
Clouds: Clear
Visibility: 10 miles , 16 km
2017/12/16 06:52 KOKC 160652Z 19010KT 10SM CLR 02/M06 A3005 RMK AO2 SLP181 T00171056